sensor_id;sensor_type;location;lat;lon;timestamp;P1;durP1;ratioP1;P2;durP2;ratioP2
18822;SDS011;9540;51.550;7.980;2023-02-01T00:02:14;32.07;;;9.00;;
18822;SDS011;9540;51.550;7.980;2023-02-01T00:04:41;33.57;;;8.00;;
18822;SDS011;9540;51.550;7.980;2023-02-01T00:07:08;27.43;;;8.67;;
18822;SDS011;9540;51.550;7.980;2023-02-01T00:09:35;31.07;;;9.17;;
18822;SDS011;9540;51.550;7.980;2023-02-01T00:12:04;31.23;;;9.57;;
18822;SDS011;9540;51.550;7.980;2023-02-01T00:14:31;29.30;;;10.47;;
18822;SDS011;9540;51.550;7.980;2023-02-01T00:17:03;31.17;;;12.10;;
18822;SDS011;9540;51.550;7.980;2023-02-01T00:19:31;37.97;;;11.27;;
18822;SDS011;9540;51.550;7.980;2023-02-01T00:21:59;36.70;;;11.17;;
18822;SDS011;9540;51.550;7.980;2023-02-01T00:24:26;30.80;;;10.23;;
18822;SDS011;9540;51.550;7.980;2023-02-01T00:26:53;23.63;;;9.37;;
18822;SDS011;9540;51.550;7.980;2023-02-01T00:29:22;32.73;;;10.10;;
18822;SDS011;9540;51.550;7.980;2023-02-01T00:31:49;31.50;;;10.20;;
18822;SDS011;9540;51.550;7.980;2023-02-01T00:34:17;39.30;;;10.33;;
18822;SDS011;9540;51.550;7.980;2023-02-01T00:36:45;28.47;;;10.00;;
18822;SDS011;9540;51.550;7.980;2023-02-01T00:39:12;34.23;;;10.70;;
18822;SDS011;9540;51.550;7.980;2023-02-01T00:41:40;33.30;;;9.33;;
18822;SDS011;9540;51.550;7.980;2023-02-01T00:44:07;33.73;;;10.47;;
18822;SDS011;9540;51.550;7.980;2023-02-01T00:46:35;28.63;;;9.77;;
18822;SDS011;9540;51.550;7.980;2023-02-01T00:49:03;33.20;;;10.13;;
18822;SDS011;9540;51.550;7.980;2023-02-01T00:51:41;26.57;;;9.40;;
18822;SDS011;9540;51.550;7.980;2023-02-01T00:54:08;35.23;;;10.27;;
18822;SDS011;9540;51.550;7.980;2023-02-01T00:56:35;32.40;;;10.87;;
18822;SDS011;9540;51.550;7.980;2023-02-01T00:59:02;31.53;;;9.73;;
18822;SDS011;9540;51.550;7.980;2023-02-01T01:01:29;39.57;;;11.83;;
18822;SDS011;9540;51.550;7.980;2023-02-01T01:03:58;35.00;;;10.50;;
18822;SDS011;9540;51.550;7.980;2023-02-01T01:06:27;27.57;;;10.47;;
18822;SDS011;9540;51.550;7.980;2023-02-01T01:08:56;35.53;;;9.83;;
18822;SDS011;9540;51.550;7.980;2023-02-01T01:11:26;23.97;;;8.80;;
18822;SDS011;9540;51.550;7.980;2023-02-01T01:13:56;25.87;;;9.37;;
18822;SDS011;9540;51.550;7.980;2023-02-01T01:16:24;23.67;;;8.97;;
18822;SDS011;9540;51.550;7.980;2023-02-01T01:18:53;22.73;;;7.37;;
18822;SDS011;9540;51.550;7.980;2023-02-01T01:21:23;30.63;;;8.50;;
18822;SDS011;9540;51.550;7.980;2023-02-01T01:23:51;24.60;;;7.00;;
18822;SDS011;9540;51.550;7.980;2023-02-01T01:26:19;29.87;;;7.50;;
18822;SDS011;9540;51.550;7.980;2023-02-01T01:28:47;24.73;;;6.30;;
18822;SDS011;9540;51.550;7.980;2023-02-01T01:31:15;24.73;;;6.60;;
18822;SDS011;9540;51.550;7.980;2023-02-01T01:33:43;20.53;;;7.07;;
18822;SDS011;9540;51.550;7.980;2023-02-01T01:36:11;26.10;;;5.70;;
18822;SDS011;9540;51.550;7.980;2023-02-01T01:38:40;25.67;;;6.20;;
18822;SDS011;9540;51.550;7.980;2023-02-01T01:41:08;17.97;;;6.73;;
18822;SDS011;9540;51.550;7.980;2023-02-01T01:43:48;25.93;;;5.90;;
18822;SDS011;9540;51.550;7.980;2023-02-01T01:46:17;18.63;;;5.53;;
18822;SDS011;9540;51.550;7.980;2023-02-01T01:48:45;21.57;;;5.57;;
18822;SDS011;9540;51.550;7.980;2023-02-01T01:51:17;19.57;;;5.17;;
18822;SDS011;9540;51.550;7.980;2023-02-01T01:53:52;26.00;;;5.60;;
18822;SDS011;9540;51.550;7.980;2023-02-01T01:56:23;24.07;;;5.17;;
18822;SDS011;9540;51.550;7.980;2023-02-01T01:58:53;21.67;;;4.50;;
18822;SDS011;9540;51.550;7.980;2023-02-01T02:01:21;18.20;;;4.57;;
18822;SDS011;9540;51.550;7.980;2023-02-01T02:03:48;25.77;;;6.07;;
18822;SDS011;9540;51.550;7.980;2023-02-01T02:06:17;18.63;;;4.67;;
18822;SDS011;9540;51.550;7.980;2023-02-01T02:08:51;18.40;;;4.40;;
18822;SDS011;9540;51.550;7.980;2023-02-01T02:11:18;19.30;;;5.10;;
18822;SDS011;9540;51.550;7.980;2023-02-01T02:13:46;19.63;;;5.57;;
18822;SDS011;9540;51.550;7.980;2023-02-01T02:16:29;25.87;;;4.90;;
18822;SDS011;9540;51.550;7.980;2023-02-01T02:25:47;27.93;;;5.60;;
18822;SDS011;9540;51.550;7.980;2023-02-01T02:28:44;25.93;;;6.10;;
18822;SDS011;9540;51.550;7.980;2023-02-01T02:31:35;29.33;;;5.40;;
18822;SDS011;9540;51.550;7.980;2023-02-01T02:34:16;18.13;;;5.00;;
18822;SDS011;9540;51.550;7.980;2023-02-01T02:36:49;21.60;;;5.13;;
18822;SDS011;9540;51.550;7.980;2023-02-01T02:39:32;23.23;;;4.90;;
18822;SDS011;9540;51.550;7.980;2023-02-01T02:42:07;23.53;;;5.93;;
18822;SDS011;9540;51.550;7.980;2023-02-01T02:44:58;17.20;;;5.17;;
18822;SDS011;9540;51.550;7.980;2023-02-01T02:47:52;24.73;;;4.90;;
18822;SDS011;9540;51.550;7.980;2023-02-01T02:50:25;21.83;;;4.67;;
18822;SDS011;9540;51.550;7.980;2023-02-01T02:53:14;28.60;;;6.10;;
18822;SDS011;9540;51.550;7.980;2023-02-01T02:56:01;35.47;;;7.20;;
18822;SDS011;9540;51.550;7.980;2023-02-01T02:58:48;22.83;;;5.17;;
18822;SDS011;9540;51.550;7.980;2023-02-01T03:01:33;26.13;;;5.70;;
18822;SDS011;9540;51.550;7.980;2023-02-01T03:04:18;22.30;;;5.80;;
18822;SDS011;9540;51.550;7.980;2023-02-01T03:06:47;22.13;;;5.17;;
18822;SDS011;9540;51.550;7.980;2023-02-01T03:09:16;19.03;;;5.07;;
18822;SDS011;9540;51.550;7.980;2023-02-01T03:11:51;21.50;;;5.60;;
18822;SDS011;9540;51.550;7.980;2023-02-01T03:14:43;17.53;;;5.03;;
18822;SDS011;9540;51.550;7.980;2023-02-01T03:17:14;23.67;;;6.03;;
18822;SDS011;9540;51.550;7.980;2023-02-01T03:19:44;19.60;;;5.10;;
18822;SDS011;9540;51.550;7.980;2023-02-01T03:22:16;22.57;;;5.70;;
18822;SDS011;9540;51.550;7.980;2023-02-01T03:24:49;15.37;;;4.50;;
18822;SDS011;9540;51.550;7.980;2023-02-01T03:27:20;24.23;;;5.57;;
18822;SDS011;9540;51.550;7.980;2023-02-01T03:29:51;19.87;;;5.27;;
18822;SDS011;9540;51.550;7.980;2023-02-01T03:32:24;19.87;;;5.97;;
18822;SDS011;9540;51.550;7.980;2023-02-01T03:34:52;22.20;;;4.67;;
18822;SDS011;9540;51.550;7.980;2023-02-01T03:37:24;25.53;;;5.37;;
18822;SDS011;9540;51.550;7.980;2023-02-01T03:39:56;23.93;;;5.23;;
18822;SDS011;9540;51.550;7.980;2023-02-01T03:42:27;23.33;;;5.13;;
18822;SDS011;9540;51.550;7.980;2023-02-01T03:45:00;29.43;;;5.60;;
18822;SDS011;9540;51.550;7.980;2023-02-01T03:47:34;20.60;;;6.10;;
18822;SDS011;9540;51.550;7.980;2023-02-01T03:50:05;18.57;;;4.90;;
18822;SDS011;9540;51.550;7.980;2023-02-01T03:52:36;20.97;;;4.60;;
18822;SDS011;9540;51.550;7.980;2023-02-01T03:55:08;26.00;;;4.77;;
18822;SDS011;9540;51.550;7.980;2023-02-01T03:57:39;18.57;;;4.87;;
18822;SDS011;9540;51.550;7.980;2023-02-01T04:00:15;18.50;;;4.87;;
18822;SDS011;9540;51.550;7.980;2023-02-01T04:02:45;20.07;;;4.33;;
18822;SDS011;9540;51.550;7.980;2023-02-01T04:05:12;27.30;;;5.67;;
18822;SDS011;9540;51.550;7.980;2023-02-01T04:07:40;19.40;;;4.70;;
18822;SDS011;9540;51.550;7.980;2023-02-01T04:10:08;19.00;;;4.50;;
18822;SDS011;9540;51.550;7.980;2023-02-01T04:12:36;18.03;;;4.37;;
18822;SDS011;9540;51.550;7.980;2023-02-01T04:15:04;24.40;;;4.70;;
18822;SDS011;9540;51.550;7.980;2023-02-01T04:17:31;21.43;;;4.20;;
18822;SDS011;9540;51.550;7.980;2023-02-01T04:19:59;23.57;;;5.03;;
18822;SDS011;9540;51.550;7.980;2023-02-01T04:22:26;27.97;;;5.63;;
18822;SDS011;9540;51.550;7.980;2023-02-01T04:24:55;20.33;;;4.40;;
18822;SDS011;9540;51.550;7.980;2023-02-01T04:27:22;21.43;;;4.03;;
18822;SDS011;9540;51.550;7.980;2023-02-01T04:29:49;22.60;;;4.73;;
18822;SDS011;9540;51.550;7.980;2023-02-01T04:32:16;20.87;;;4.37;;
18822;SDS011;9540;51.550;7.980;2023-02-01T04:34:44;20.60;;;4.93;;
18822;SDS011;9540;51.550;7.980;2023-02-01T04:37:11;22.53;;;5.00;;
18822;SDS011;9540;51.550;7.980;2023-02-01T04:39:39;13.77;;;4.43;;
18822;SDS011;9540;51.550;7.980;2023-02-01T04:42:07;17.47;;;4.37;;
18822;SDS011;9540;51.550;7.980;2023-02-01T04:44:34;26.63;;;4.43;;
18822;SDS011;9540;51.550;7.980;2023-02-01T04:47:04;15.50;;;4.17;;
18822;SDS011;9540;51.550;7.980;2023-02-01T04:49:31;22.80;;;4.43;;
18822;SDS011;9540;51.550;7.980;2023-02-01T04:51:58;22.73;;;4.63;;
18822;SDS011;9540;51.550;7.980;2023-02-01T04:54:25;23.40;;;4.90;;
18822;SDS011;9540;51.550;7.980;2023-02-01T04:56:53;24.00;;;4.70;;
18822;SDS011;9540;51.550;7.980;2023-02-01T04:59:21;26.00;;;5.23;;
18822;SDS011;9540;51.550;7.980;2023-02-01T05:01:48;24.17;;;5.07;;
18822;SDS011;9540;51.550;7.980;2023-02-01T05:04:15;20.90;;;4.17;;
18822;SDS011;9540;51.550;7.980;2023-02-01T05:06:43;19.47;;;5.13;;
18822;SDS011;9540;51.550;7.980;2023-02-01T05:09:10;27.60;;;5.63;;
18822;SDS011;9540;51.550;7.980;2023-02-01T05:11:38;16.77;;;4.37;;
18822;SDS011;9540;51.550;7.980;2023-02-01T05:14:24;25.20;;;4.63;;
18822;SDS011;9540;51.550;7.980;2023-02-01T05:16:51;24.67;;;5.80;;
18822;SDS011;9540;51.550;7.980;2023-02-01T05:19:18;21.80;;;4.00;;
18822;SDS011;9540;51.550;7.980;2023-02-01T05:21:45;22.63;;;4.70;;
18822;SDS011;9540;51.550;7.980;2023-02-01T05:24:12;20.60;;;4.57;;
18822;SDS011;9540;51.550;7.980;2023-02-01T05:26:44;30.73;;;5.10;;
18822;SDS011;9540;51.550;7.980;2023-02-01T05:29:12;21.47;;;5.17;;
18822;SDS011;9540;51.550;7.980;2023-02-01T05:31:40;24.53;;;5.03;;
18822;SDS011;9540;51.550;7.980;2023-02-01T05:34:09;20.60;;;4.67;;
18822;SDS011;9540;51.550;7.980;2023-02-01T05:36:37;27.67;;;4.57;;
18822;SDS011;9540;51.550;7.980;2023-02-01T05:39:04;24.83;;;5.20;;
18822;SDS011;9540;51.550;7.980;2023-02-01T05:41:31;18.17;;;4.80;;
18822;SDS011;9540;51.550;7.980;2023-02-01T05:43:58;23.00;;;4.37;;
18822;SDS011;9540;51.550;7.980;2023-02-01T05:46:25;18.70;;;3.90;;
18822;SDS011;9540;51.550;7.980;2023-02-01T05:48:53;19.53;;;4.73;;
18822;SDS011;9540;51.550;7.980;2023-02-01T05:51:21;18.73;;;4.47;;
18822;SDS011;9540;51.550;7.980;2023-02-01T05:53:48;24.20;;;4.63;;
18822;SDS011;9540;51.550;7.980;2023-02-01T05:56:15;23.17;;;4.77;;
18822;SDS011;9540;51.550;7.980;2023-02-01T05:58:42;21.83;;;5.07;;
18822;SDS011;9540;51.550;7.980;2023-02-01T06:01:09;22.33;;;5.50;;
18822;SDS011;9540;51.550;7.980;2023-02-01T06:03:36;22.60;;;5.67;;
18822;SDS011;9540;51.550;7.980;2023-02-01T06:06:05;24.30;;;5.30;;
18822;SDS011;9540;51.550;7.980;2023-02-01T06:08:32;32.50;;;5.17;;
18822;SDS011;9540;51.550;7.980;2023-02-01T06:10:59;24.27;;;4.97;;
18822;SDS011;9540;51.550;7.980;2023-02-01T06:13:27;24.10;;;5.60;;
18822;SDS011;9540;51.550;7.980;2023-02-01T06:15:55;23.47;;;5.20;;
18822;SDS011;9540;51.550;7.980;2023-02-01T06:18:23;16.47;;;4.47;;
18822;SDS011;9540;51.550;7.980;2023-02-01T06:20:53;37.00;;;6.73;;
18822;SDS011;9540;51.550;7.980;2023-02-01T06:23:22;23.13;;;4.70;;
18822;SDS011;9540;51.550;7.980;2023-02-01T06:25:49;14.93;;;4.43;;
18822;SDS011;9540;51.550;7.980;2023-02-01T06:28:17;22.43;;;5.00;;
18822;SDS011;9540;51.550;7.980;2023-02-01T06:30:44;26.80;;;5.23;;
18822;SDS011;9540;51.550;7.980;2023-02-01T06:33:12;21.83;;;4.87;;
18822;SDS011;9540;51.550;7.980;2023-02-01T06:35:40;19.63;;;5.20;;
18822;SDS011;9540;51.550;7.980;2023-02-01T06:38:09;20.87;;;5.00;;
18822;SDS011;9540;51.550;7.980;2023-02-01T06:40:38;24.03;;;5.10;;
18822;SDS011;9540;51.550;7.980;2023-02-01T06:43:06;25.13;;;5.20;;
18822;SDS011;9540;51.550;7.980;2023-02-01T06:45:33;20.70;;;5.27;;
18822;SDS011;9540;51.550;7.980;2023-02-01T06:48:00;21.10;;;4.57;;
18822;SDS011;9540;51.550;7.980;2023-02-01T06:50:27;19.07;;;4.77;;
18822;SDS011;9540;51.550;7.980;2023-02-01T06:52:54;22.60;;;5.47;;
18822;SDS011;9540;51.550;7.980;2023-02-01T06:55:21;29.00;;;5.00;;
18822;SDS011;9540;51.550;7.980;2023-02-01T06:57:53;27.47;;;6.00;;
18822;SDS011;9540;51.550;7.980;2023-02-01T07:00:21;22.90;;;5.57;;
18822;SDS011;9540;51.550;7.980;2023-02-01T07:02:49;21.10;;;5.57;;
18822;SDS011;9540;51.550;7.980;2023-02-01T07:05:16;20.67;;;4.77;;
18822;SDS011;9540;51.550;7.980;2023-02-01T07:07:44;27.40;;;5.73;;
18822;SDS011;9540;51.550;7.980;2023-02-01T07:10:11;29.30;;;6.07;;
18822;SDS011;9540;51.550;7.980;2023-02-01T07:12:38;28.07;;;5.53;;
18822;SDS011;9540;51.550;7.980;2023-02-01T07:15:07;22.13;;;6.03;;
18822;SDS011;9540;51.550;7.980;2023-02-01T07:17:35;23.83;;;6.13;;
18822;SDS011;9540;51.550;7.980;2023-02-01T07:20:02;29.63;;;5.70;;
18822;SDS011;9540;51.550;7.980;2023-02-01T07:22:30;27.50;;;6.10;;
18822;SDS011;9540;51.550;7.980;2023-02-01T07:24:57;21.37;;;5.73;;
18822;SDS011;9540;51.550;7.980;2023-02-01T07:27:24;21.67;;;5.33;;
18822;SDS011;9540;51.550;7.980;2023-02-01T07:29:51;24.50;;;5.20;;
18822;SDS011;9540;51.550;7.980;2023-02-01T07:32:22;21.00;;;5.77;;
18822;SDS011;9540;51.550;7.980;2023-02-01T07:34:49;25.50;;;6.00;;
18822;SDS011;9540;51.550;7.980;2023-02-01T07:37:16;23.17;;;5.50;;
18822;SDS011;9540;51.550;7.980;2023-02-01T07:39:43;34.47;;;7.97;;
18822;SDS011;9540;51.550;7.980;2023-02-01T07:42:10;25.37;;;5.87;;
18822;SDS011;9540;51.550;7.980;2023-02-01T07:44:37;29.67;;;6.33;;
18822;SDS011;9540;51.550;7.980;2023-02-01T07:47:04;26.50;;;5.60;;
18822;SDS011;9540;51.550;7.980;2023-02-01T07:49:33;27.53;;;5.87;;
18822;SDS011;9540;51.550;7.980;2023-02-01T07:52:00;29.37;;;7.37;;
18822;SDS011;9540;51.550;7.980;2023-02-01T07:54:27;33.73;;;5.80;;
18822;SDS011;9540;51.550;7.980;2023-02-01T07:56:54;24.17;;;5.90;;
18822;SDS011;9540;51.550;7.980;2023-02-01T07:59:22;15.27;;;5.20;;
18822;SDS011;9540;51.550;7.980;2023-02-01T08:01:49;26.10;;;6.50;;
18822;SDS011;9540;51.550;7.980;2023-02-01T08:04:15;28.90;;;6.20;;
18822;SDS011;9540;51.550;7.980;2023-02-01T08:06:46;18.03;;;4.83;;
18822;SDS011;9540;51.550;7.980;2023-02-01T08:09:13;21.07;;;6.50;;
18822;SDS011;9540;51.550;7.980;2023-02-01T08:11:40;20.97;;;5.60;;
18822;SDS011;9540;51.550;7.980;2023-02-01T08:14:07;24.07;;;6.20;;
18822;SDS011;9540;51.550;7.980;2023-02-01T08:16:34;28.97;;;6.07;;
18822;SDS011;9540;51.550;7.980;2023-02-01T08:19:02;24.50;;;5.27;;
18822;SDS011;9540;51.550;7.980;2023-02-01T08:21:30;28.90;;;6.07;;
18822;SDS011;9540;51.550;7.980;2023-02-01T08:24:04;25.70;;;5.43;;
18822;SDS011;9540;51.550;7.980;2023-02-01T08:26:32;19.87;;;5.40;;
18822;SDS011;9540;51.550;7.980;2023-02-01T08:29:00;25.23;;;6.93;;
18822;SDS011;9540;51.550;7.980;2023-02-01T08:31:29;29.13;;;6.57;;
18822;SDS011;9540;51.550;7.980;2023-02-01T08:33:57;19.13;;;6.00;;
18822;SDS011;9540;51.550;7.980;2023-02-01T08:36:26;32.57;;;7.23;;
18822;SDS011;9540;51.550;7.980;2023-02-01T08:38:54;29.57;;;6.60;;
18822;SDS011;9540;51.550;7.980;2023-02-01T08:41:24;21.70;;;6.33;;
18822;SDS011;9540;51.550;7.980;2023-02-01T08:43:54;18.80;;;6.70;;
18822;SDS011;9540;51.550;7.980;2023-02-01T08:46:22;24.40;;;6.40;;
18822;SDS011;9540;51.550;7.980;2023-02-01T08:48:49;27.60;;;7.27;;
18822;SDS011;9540;51.550;7.980;2023-02-01T08:51:17;27.37;;;7.30;;
18822;SDS011;9540;51.550;7.980;2023-02-01T08:53:46;15.80;;;6.07;;
18822;SDS011;9540;51.550;7.980;2023-02-01T08:56:15;25.13;;;7.27;;
18822;SDS011;9540;51.550;7.980;2023-02-01T08:58:45;20.77;;;6.67;;
18822;SDS011;9540;51.550;7.980;2023-02-01T09:01:13;26.23;;;6.93;;
18822;SDS011;9540;51.550;7.980;2023-02-01T09:03:42;26.27;;;7.17;;
18822;SDS011;9540;51.550;7.980;2023-02-01T09:06:09;30.87;;;7.60;;
18822;SDS011;9540;51.550;7.980;2023-02-01T09:08:38;20.20;;;6.90;;
18822;SDS011;9540;51.550;7.980;2023-02-01T09:11:07;23.60;;;7.37;;
18822;SDS011;9540;51.550;7.980;2023-02-01T09:13:36;22.63;;;7.87;;
18822;SDS011;9540;51.550;7.980;2023-02-01T09:16:05;25.07;;;5.90;;
18822;SDS011;9540;51.550;7.980;2023-02-01T09:18:32;26.20;;;6.30;;
18822;SDS011;9540;51.550;7.980;2023-02-01T09:21:03;25.43;;;6.63;;
18822;SDS011;9540;51.550;7.980;2023-02-01T09:23:30;28.20;;;7.97;;
18822;SDS011;9540;51.550;7.980;2023-02-01T09:25:58;20.23;;;7.10;;
18822;SDS011;9540;51.550;7.980;2023-02-01T09:28:26;34.07;;;7.87;;
18822;SDS011;9540;51.550;7.980;2023-02-01T09:30:55;20.53;;;6.57;;
18822;SDS011;9540;51.550;7.980;2023-02-01T09:33:24;20.27;;;7.07;;
18822;SDS011;9540;51.550;7.980;2023-02-01T09:35:54;22.67;;;6.47;;
18822;SDS011;9540;51.550;7.980;2023-02-01T09:38:22;26.93;;;7.57;;
18822;SDS011;9540;51.550;7.980;2023-02-01T09:40:50;15.23;;;6.17;;
18822;SDS011;9540;51.550;7.980;2023-02-01T09:43:22;29.37;;;7.07;;
18822;SDS011;9540;51.550;7.980;2023-02-01T09:46:06;28.67;;;7.50;;
18822;SDS011;9540;51.550;7.980;2023-02-01T09:48:46;23.13;;;7.13;;
18822;SDS011;9540;51.550;7.980;2023-02-01T09:51:16;27.80;;;7.23;;
18822;SDS011;9540;51.550;7.980;2023-02-01T09:53:51;18.20;;;7.07;;
18822;SDS011;9540;51.550;7.980;2023-02-01T09:56:27;25.27;;;7.40;;
18822;SDS011;9540;51.550;7.980;2023-02-01T09:59:02;25.83;;;7.10;;
18822;SDS011;9540;51.550;7.980;2023-02-01T10:01:35;22.10;;;6.80;;
18822;SDS011;9540;51.550;7.980;2023-02-01T10:04:06;24.93;;;6.57;;
18822;SDS011;9540;51.550;7.980;2023-02-01T10:09:32;22.67;;;6.63;;
18822;SDS011;9540;51.550;7.980;2023-02-01T10:15:35;20.77;;;7.20;;
18822;SDS011;9540;51.550;7.980;2023-02-01T10:18:17;24.77;;;6.60;;
18822;SDS011;9540;51.550;7.980;2023-02-01T10:21:04;22.30;;;6.57;;
18822;SDS011;9540;51.550;7.980;2023-02-01T10:23:48;21.40;;;6.47;;
18822;SDS011;9540;51.550;7.980;2023-02-01T10:26:23;23.80;;;6.07;;
18822;SDS011;9540;51.550;7.980;2023-02-01T10:28:51;28.80;;;6.90;;
18822;SDS011;9540;51.550;7.980;2023-02-01T10:31:20;24.50;;;6.93;;
18822;SDS011;9540;51.550;7.980;2023-02-01T10:33:51;25.47;;;7.40;;
18822;SDS011;9540;51.550;7.980;2023-02-01T10:36:25;16.77;;;6.40;;
18822;SDS011;9540;51.550;7.980;2023-02-01T10:38:56;24.00;;;6.47;;
18822;SDS011;9540;51.550;7.980;2023-02-01T10:41:24;18.63;;;6.70;;
18822;SDS011;9540;51.550;7.980;2023-02-01T10:43:57;20.17;;;6.47;;
18822;SDS011;9540;51.550;7.980;2023-02-01T10:46:29;22.20;;;6.07;;
18822;SDS011;9540;51.550;7.980;2023-02-01T10:48:57;24.60;;;6.22;;
18822;SDS011;9540;51.550;7.980;2023-02-01T10:51:30;25.80;;;6.93;;
18822;SDS011;9540;51.550;7.980;2023-02-01T10:54:09;19.07;;;6.47;;
18822;SDS011;9540;51.550;7.980;2023-02-01T10:56:40;20.47;;;5.80;;
18822;SDS011;9540;51.550;7.980;2023-02-01T10:59:15;24.77;;;6.67;;
18822;SDS011;9540;51.550;7.980;2023-02-01T11:01:44;23.53;;;6.17;;
18822;SDS011;9540;51.550;7.980;2023-02-01T11:04:13;16.13;;;6.27;;
18822;SDS011;9540;51.550;7.980;2023-02-01T11:06:44;22.17;;;7.00;;
18822;SDS011;9540;51.550;7.980;2023-02-01T11:09:16;23.53;;;6.90;;
18822;SDS011;9540;51.550;7.980;2023-02-01T11:11:54;17.93;;;7.33;;
18822;SDS011;9540;51.550;7.980;2023-02-01T11:14:26;25.30;;;7.53;;
18822;SDS011;9540;51.550;7.980;2023-02-01T11:17:01;19.90;;;6.00;;
18822;SDS011;9540;51.550;7.980;2023-02-01T11:19:44;19.20;;;6.40;;
18822;SDS011;9540;51.550;7.980;2023-02-01T11:22:13;22.40;;;6.20;;
18822;SDS011;9540;51.550;7.980;2023-02-01T11:24:41;24.17;;;8.27;;
18822;SDS011;9540;51.550;7.980;2023-02-01T11:27:13;21.27;;;6.60;;
18822;SDS011;9540;51.550;7.980;2023-02-01T11:29:44;24.17;;;6.53;;
18822;SDS011;9540;51.550;7.980;2023-02-01T11:32:14;23.00;;;6.93;;
18822;SDS011;9540;51.550;7.980;2023-02-01T11:34:45;30.13;;;6.50;;
18822;SDS011;9540;51.550;7.980;2023-02-01T11:37:18;25.40;;;6.67;;
18822;SDS011;9540;51.550;7.980;2023-02-01T11:39:53;20.13;;;6.57;;
18822;SDS011;9540;51.550;7.980;2023-02-01T11:42:22;21.00;;;6.13;;
18822;SDS011;9540;51.550;7.980;2023-02-01T11:44:50;21.23;;;6.17;;
18822;SDS011;9540;51.550;7.980;2023-02-01T11:47:38;18.93;;;6.07;;
18822;SDS011;9540;51.550;7.980;2023-02-01T11:50:09;23.07;;;5.60;;
18822;SDS011;9540;51.550;7.980;2023-02-01T11:52:47;21.77;;;6.00;;
18822;SDS011;9540;51.550;7.980;2023-02-01T11:55:32;18.03;;;5.77;;
18822;SDS011;9540;51.550;7.980;2023-02-01T11:58:15;27.17;;;5.90;;
18822;SDS011;9540;51.550;7.980;2023-02-01T12:00:57;33.27;;;6.07;;
18822;SDS011;9540;51.550;7.980;2023-02-01T12:03:47;20.63;;;5.87;;
18822;SDS011;9540;51.550;7.980;2023-02-01T12:06:36;15.60;;;6.03;;
18822;SDS011;9540;51.550;7.980;2023-02-01T12:09:16;14.23;;;5.83;;
18822;SDS011;9540;51.550;7.980;2023-02-01T12:11:57;17.13;;;5.78;;
18822;SDS011;9540;51.550;7.980;2023-02-01T12:14:36;21.13;;;6.13;;
18822;SDS011;9540;51.550;7.980;2023-02-01T12:17:18;17.73;;;5.73;;
18822;SDS011;9540;51.550;7.980;2023-02-01T12:20:06;20.07;;;6.27;;
18822;SDS011;9540;51.550;7.980;2023-02-01T12:22:52;21.27;;;6.23;;
18822;SDS011;9540;51.550;7.980;2023-02-01T12:25:36;22.10;;;6.63;;
18822;SDS011;9540;51.550;7.980;2023-02-01T12:28:23;19.77;;;6.10;;
18822;SDS011;9540;51.550;7.980;2023-02-01T12:31:11;25.73;;;7.07;;
18822;SDS011;9540;51.550;7.980;2023-02-01T12:34:02;21.53;;;7.30;;
18822;SDS011;9540;51.550;7.980;2023-02-01T12:36:46;23.53;;;7.80;;
18822;SDS011;9540;51.550;7.980;2023-02-01T12:39:21;21.77;;;7.37;;
18822;SDS011;9540;51.550;7.980;2023-02-01T12:41:56;27.30;;;7.37;;
18822;SDS011;9540;51.550;7.980;2023-02-01T12:44:28;16.87;;;6.60;;
18822;SDS011;9540;51.550;7.980;2023-02-01T12:47:05;20.77;;;7.90;;
18822;SDS011;9540;51.550;7.980;2023-02-01T12:49:42;27.67;;;7.10;;
18822;SDS011;9540;51.550;7.980;2023-02-01T12:52:16;23.53;;;8.60;;
18822;SDS011;9540;51.550;7.980;2023-02-01T12:54:48;18.10;;;6.90;;
18822;SDS011;9540;51.550;7.980;2023-02-01T12:57:23;22.30;;;7.03;;
18822;SDS011;9540;51.550;7.980;2023-02-01T12:59:56;30.03;;;7.60;;
18822;SDS011;9540;51.550;7.980;2023-02-01T13:02:28;26.70;;;8.10;;
18822;SDS011;9540;51.550;7.980;2023-02-01T13:05:05;17.63;;;7.10;;
18822;SDS011;9540;51.550;7.980;2023-02-01T13:07:43;22.70;;;8.80;;
18822;SDS011;9540;51.550;7.980;2023-02-01T13:10:15;22.17;;;6.93;;
18822;SDS011;9540;51.550;7.980;2023-02-01T13:12:50;15.67;;;6.60;;
18822;SDS011;9540;51.550;7.980;2023-02-01T13:15:21;18.53;;;6.80;;
18822;SDS011;9540;51.550;7.980;2023-02-01T13:17:52;20.37;;;7.53;;
18822;SDS011;9540;51.550;7.980;2023-02-01T13:20:25;22.10;;;7.90;;
18822;SDS011;9540;51.550;7.980;2023-02-01T13:22:59;28.87;;;7.50;;
18822;SDS011;9540;51.550;7.980;2023-02-01T13:25:35;22.23;;;7.27;;
18822;SDS011;9540;51.550;7.980;2023-02-01T13:28:10;32.97;;;8.10;;
18822;SDS011;9540;51.550;7.980;2023-02-01T13:30:52;19.93;;;6.50;;
18822;SDS011;9540;51.550;7.980;2023-02-01T13:33:33;23.57;;;7.07;;
18822;SDS011;9540;51.550;7.980;2023-02-01T13:36:17;24.40;;;7.03;;
18822;SDS011;9540;51.550;7.980;2023-02-01T13:42:01;22.23;;;6.77;;
18822;SDS011;9540;51.550;7.980;2023-02-01T13:44:34;20.73;;;7.10;;
18822;SDS011;9540;51.550;7.980;2023-02-01T13:47:09;28.63;;;7.00;;
18822;SDS011;9540;51.550;7.980;2023-02-01T13:49:46;21.93;;;5.87;;
18822;SDS011;9540;51.550;7.980;2023-02-01T13:55:15;17.97;;;6.10;;
18822;SDS011;9540;51.550;7.980;2023-02-01T13:58:00;21.40;;;5.83;;
18822;SDS011;9540;51.550;7.980;2023-02-01T14:00:32;21.83;;;6.87;;
18822;SDS011;9540;51.550;7.980;2023-02-01T14:03:08;24.27;;;6.40;;
18822;SDS011;9540;51.550;7.980;2023-02-01T14:09:14;22.07;;;6.07;;
18822;SDS011;9540;51.550;7.980;2023-02-01T14:11:47;22.63;;;5.77;;
18822;SDS011;9540;51.550;7.980;2023-02-01T14:23:22;17.80;;;5.43;;
18822;SDS011;9540;51.550;7.980;2023-02-01T14:28:45;22.03;;;6.23;;
18822;SDS011;9540;51.550;7.980;2023-02-01T14:31:23;23.50;;;5.80;;
18822;SDS011;9540;51.550;7.980;2023-02-01T14:34:02;15.53;;;4.73;;
18822;SDS011;9540;51.550;7.980;2023-02-01T14:36:41;19.77;;;4.47;;
18822;SDS011;9540;51.550;7.980;2023-02-01T14:39:22;21.30;;;4.90;;
18822;SDS011;9540;51.550;7.980;2023-02-01T14:42:01;17.40;;;4.60;;
18822;SDS011;9540;51.550;7.980;2023-02-01T14:44:31;23.07;;;5.07;;
18822;SDS011;9540;51.550;7.980;2023-02-01T14:47:07;27.87;;;6.37;;
18822;SDS011;9540;51.550;7.980;2023-02-01T14:49:39;14.43;;;4.63;;
18822;SDS011;9540;51.550;7.980;2023-02-01T14:52:16;32.10;;;6.87;;
18822;SDS011;9540;51.550;7.980;2023-02-01T14:54:49;21.93;;;5.67;;
18822;SDS011;9540;51.550;7.980;2023-02-01T14:57:20;27.07;;;5.63;;
18822;SDS011;9540;51.550;7.980;2023-02-01T14:59:53;14.50;;;4.90;;
18822;SDS011;9540;51.550;7.980;2023-02-01T15:02:26;22.97;;;6.07;;
18822;SDS011;9540;51.550;7.980;2023-02-01T15:04:58;24.53;;;6.40;;
18822;SDS011;9540;51.550;7.980;2023-02-01T15:07:25;22.77;;;5.70;;
18822;SDS011;9540;51.550;7.980;2023-02-01T15:09:57;21.40;;;5.67;;
18822;SDS011;9540;51.550;7.980;2023-02-01T15:12:26;21.50;;;4.80;;
18822;SDS011;9540;51.550;7.980;2023-02-01T15:15:11;20.57;;;5.67;;
18822;SDS011;9540;51.550;7.980;2023-02-01T15:17:41;23.17;;;4.40;;
18822;SDS011;9540;51.550;7.980;2023-02-01T15:20:17;20.17;;;4.80;;
18822;SDS011;9540;51.550;7.980;2023-02-01T15:22:53;19.37;;;6.20;;
18822;SDS011;9540;51.550;7.980;2023-02-01T15:25:25;16.50;;;4.67;;
18822;SDS011;9540;51.550;7.980;2023-02-01T15:27:54;16.63;;;4.97;;
18822;SDS011;9540;51.550;7.980;2023-02-01T15:30:23;17.77;;;4.33;;
18822;SDS011;9540;51.550;7.980;2023-02-01T15:32:52;16.50;;;5.20;;
18822;SDS011;9540;51.550;7.980;2023-02-01T15:35:37;16.67;;;4.70;;
18822;SDS011;9540;51.550;7.980;2023-02-01T15:40:59;17.77;;;4.63;;
18822;SDS011;9540;51.550;7.980;2023-02-01T15:43:29;18.13;;;4.43;;
18822;SDS011;9540;51.550;7.980;2023-02-01T15:45:58;26.50;;;5.10;;
18822;SDS011;9540;51.550;7.980;2023-02-01T15:48:30;25.23;;;4.87;;
18822;SDS011;9540;51.550;7.980;2023-02-01T15:51:03;17.57;;;4.57;;
18822;SDS011;9540;51.550;7.980;2023-02-01T15:53:31;19.87;;;4.93;;